createdAt,value
2022-12-23T00:01:15.603Z,99758.50
2022-12-23T00:03:19.016Z,99759.38
2022-12-23T00:05:22.499Z,99765.47
2022-12-23T00:07:25.936Z,99765.47
2022-12-23T00:09:31.616Z,99768.94
2022-12-23T00:11:34.936Z,99773.34
2022-12-23T00:13:55.933Z,99783.81
2022-12-23T00:16:03.025Z,99773.44
2022-12-23T00:18:06.457Z,99773.41
2022-12-23T00:20:11.704Z,99774.25
2022-12-23T00:22:15.007Z,99773.31
2022-12-23T00:24:18.344Z,99771.56
2022-12-23T00:26:24.816Z,99768.84
2022-12-23T00:28:30.551Z,99782.78
2022-12-23T00:30:34.014Z,99773.25
2022-12-23T00:32:37.502Z,99777.56
2022-12-23T00:34:40.821Z,99772.31
2022-12-23T00:36:44.191Z,99778.44
2022-12-23T00:39:05.745Z,99775.88
2022-12-23T00:41:29.224Z,99771.47
2022-12-23T00:43:33.900Z,99781.94
2022-12-23T00:45:37.766Z,99782.78
2022-12-23T00:47:58.799Z,99782.69
2022-12-23T00:50:02.106Z,99790.47
2022-12-23T00:52:07.550Z,99792.06
2022-12-23T00:54:11.041Z,99735.88
2022-12-23T00:56:14.461Z,99791.88
2022-12-23T00:58:18.804Z,99790.19
2022-12-23T01:00:44.494Z,99792.78
2022-12-23T01:03:05.666Z,99796.47
2022-12-23T01:05:37.443Z,99801.63
2022-12-23T01:07:42.331Z,99804.22
2022-12-23T01:09:45.882Z,99796.47
2022-12-23T01:11:49.271Z,99794.63
2022-12-23T01:13:52.655Z,99804.97
2022-12-23T01:16:02.118Z,99816.38
2022-12-23T01:18:05.681Z,99811.13
2022-12-23T01:20:09.916Z,99819.84
2022-12-23T01:22:13.279Z,99820.72
2022-12-23T01:24:16.699Z,99818.78
2022-12-23T01:26:20.010Z,99817.81
2022-12-23T01:28:23.347Z,99821.09
2022-12-23T01:30:27.258Z,99825.41
2022-12-23T01:32:31.947Z,99830.88
2022-12-23T01:34:37.408Z,99839.66
2022-12-23T01:36:41.083Z,99831.13
2022-12-23T01:38:45.002Z,99823.19
2022-12-23T01:40:48.426Z,99816.31
2022-12-23T01:42:50.911Z,99830.25
2022-12-23T01:45:00.532Z,99826.06
2022-12-23T01:47:04.938Z,99838.25
2022-12-23T01:49:09.807Z,99842.53
2022-12-23T01:51:15.912Z,99858.19
2022-12-23T01:53:21.835Z,99852.28
2022-12-23T01:55:27.809Z,99850.56
2022-12-23T01:57:31.650Z,99845.34
2022-12-23T01:59:52.782Z,99847.81
2022-12-23T02:02:13.861Z,99850.38
2022-12-23T02:04:21.605Z,99853.06
2022-12-23T02:06:46.227Z,99851.91
2022-12-23T02:09:07.696Z,99857.22
2022-12-23T02:11:35.334Z,99863.28
2022-12-23T02:14:03.303Z,99861.69
2022-12-23T02:16:18.702Z,99857.19
2022-12-23T02:18:47.119Z,99846.59
2022-12-23T02:21:12.152Z,99848.34
2022-12-23T02:23:51.205Z,99852.88
2022-12-23T02:26:10.501Z,99850.34
2022-12-23T02:28:57.563Z,99861.69
2022-12-23T02:31:10.437Z,99864.25
2022-12-23T02:33:29.078Z,99863.50
2022-12-23T02:35:41.760Z,99875.66
2022-12-23T02:37:54.126Z,99857.19
2022-12-23T02:40:02.928Z,99874.69
2022-12-23T02:42:12.246Z,99884.34
2022-12-23T02:44:24.748Z,99886.06
2022-12-23T02:46:34.809Z,99883.47
2022-12-23T02:48:42.577Z,99884.47
2022-12-23T02:50:47.073Z,99880.13
2022-12-23T02:52:52.865Z,99883.41
2022-12-23T02:55:02.016Z,99885.06
2022-12-23T02:57:08.717Z,99875.56
2022-12-23T02:59:18.496Z,99878.13
2022-12-23T03:01:22.230Z,99826.22
2022-12-23T03:03:27.876Z,99881.50
2022-12-23T03:05:35.705Z,99889.47
2022-12-23T03:07:43.677Z,99900.84
2022-12-23T03:09:58.177Z,99900.03
2022-12-23T03:12:07.952Z,99905.94
2022-12-23T03:14:29.491Z,99905.19
2022-12-23T03:16:45.254Z,99926.81
2022-12-23T03:19:03.537Z,99938.09
2022-12-23T03:21:11.996Z,99939.94
2022-12-23T03:23:22.542Z,99929.47
2022-12-23T03:25:32.492Z,99911.69
2022-12-23T03:27:41.454Z,99947.84
2022-12-23T03:29:52.604Z,99955.72
2022-12-23T03:32:00.928Z,99951.44
2022-12-23T03:34:11.110Z,99943.44
2022-12-23T03:36:19.324Z,99938.19
2022-12-23T03:38:24.026Z,99925.88
2022-12-23T03:40:31.580Z,99923.38
2022-12-23T03:42:37.811Z,99934.50
2022-12-23T03:45:10.687Z,99920.47
2022-12-23T03:47:13.085Z,99938.91
2022-12-23T03:49:25.278Z,99949.19
2022-12-23T03:51:34.656Z,99958.75
2022-12-23T03:53:43.295Z,99958.75
2022-12-23T03:55:52.216Z,99945.59
2022-12-23T03:58:02.068Z,99948.22
2022-12-23T04:00:06.641Z,99940.34
2022-12-23T04:02:14.352Z,99891.97
2022-12-23T04:04:26.291Z,99943.06
2022-12-23T04:06:37.339Z,99934.31
2022-12-23T04:08:42.929Z,99930.81
2022-12-23T04:10:46.893Z,99921.34
2022-12-23T04:12:51.155Z,99920.66
2022-12-23T04:14:54.825Z,99935.53
2022-12-23T04:16:59.265Z,99932.81
2022-12-23T04:19:02.790Z,99939.75
2022-12-23T04:21:07.535Z,99936.91
2022-12-23T04:23:10.941Z,99901.03
2022-12-23T04:25:15.676Z,99924.78
2022-12-23T04:27:19.026Z,99924.03
2022-12-23T04:29:22.394Z,99926.78
2022-12-23T04:31:25.751Z,99925.84
2022-12-23T04:33:29.130Z,99920.69
2022-12-23T04:35:32.768Z,99932.72
2022-12-23T04:37:37.735Z,99938.91
2022-12-23T04:39:41.083Z,99935.47
2022-12-23T04:41:44.389Z,99938.19
2022-12-23T04:43:52.810Z,99942.59
2022-12-23T04:45:56.727Z,99939.06
2022-12-23T04:48:00.185Z,99939.16
2022-12-23T04:50:03.883Z,99940.03
2022-12-23T04:52:07.748Z,99944.31
2022-12-23T04:54:12.446Z,99939.81
2022-12-23T04:56:15.855Z,99939.84
2022-12-23T04:58:21.959Z,99940.81
2022-12-23T05:00:25.520Z,99951.28
2022-12-23T05:02:28.966Z,99945.22
2022-12-23T05:04:32.645Z,99949.44
2022-12-23T05:06:36.083Z,99950.47
2022-12-23T05:08:39.604Z,99960.97
2022-12-23T05:10:45.728Z,99954.75
2022-12-23T05:12:49.102Z,99961.97
2022-12-23T05:14:53.399Z,99965.16
2022-12-23T05:16:59.616Z,99967.88
2022-12-23T05:19:07.192Z,99906.19
2022-12-23T05:21:10.790Z,99967.63
2022-12-23T05:23:14.274Z,99971.31
2022-12-23T05:25:17.884Z,99959.84
2022-12-23T05:27:22.649Z,99961.66
2022-12-23T05:29:26.023Z,99962.66
2022-12-23T05:31:29.526Z,99968.59
2022-12-23T05:33:33.981Z,99971.94
2022-12-23T05:35:37.471Z,99958.09
2022-12-23T05:37:40.840Z,99965.09
2022-12-23T05:39:44.177Z,99966.78
2022-12-23T05:41:47.562Z,99959.59
2022-12-23T05:43:52.401Z,99960.47
2022-12-23T05:45:56.075Z,99958.81
2022-12-23T05:47:59.618Z,99962.19
2022-12-23T05:50:03.308Z,99972.63
2022-12-23T05:52:07.913Z,99971.78
2022-12-23T05:54:11.213Z,99979.41
2022-12-23T05:56:14.571Z,99981.19
2022-12-23T05:58:18.487Z,99984.63
2022-12-23T06:00:23.540Z,99982.03
2022-12-23T06:02:27.128Z,99991.53
2022-12-23T06:04:30.667Z,99991.59
2022-12-23T06:06:34.061Z,99994.22
2022-12-23T06:08:37.622Z,100000.44
2022-12-23T06:10:40.991Z,99997.88
2022-12-23T06:12:44.364Z,100003.94
2022-12-23T06:14:47.697Z,99998.00
2022-12-23T06:16:52.543Z,99983.94
2022-12-23T06:18:56.692Z,99991.75
2022-12-23T06:21:01.715Z,99997.88
2022-12-23T06:23:06.074Z,99999.41
2022-12-23T06:25:10.095Z,99997.91
2022-12-23T06:27:13.425Z,99985.84
2022-12-23T06:29:16.767Z,99991.16
2022-12-23T06:31:20.168Z,99992.78
2022-12-23T06:33:25.645Z,99920.00
2022-12-23T06:35:29.115Z,99986.00
2022-12-23T06:37:32.450Z,99985.22
2022-12-23T06:39:35.771Z,99984.44
2022-12-23T06:41:39.268Z,99978.28
2022-12-23T06:43:42.723Z,99978.25
2022-12-23T06:45:48.361Z,99985.31
2022-12-23T06:47:51.821Z,99977.59
2022-12-23T06:49:56.490Z,99983.69
2022-12-23T06:51:59.973Z,99972.97
2022-12-23T06:54:03.554Z,99981.78
2022-12-23T06:56:07.955Z,99987.91
2022-12-23T06:58:11.465Z,99982.75
2022-12-23T07:00:16.379Z,99982.75
2022-12-23T07:02:19.830Z,99971.41
2022-12-23T07:04:23.283Z,99981.94
2022-12-23T07:06:28.020Z,99980.25
2022-12-23T07:08:31.359Z,99985.59
2022-12-23T07:10:34.993Z,99983.78
2022-12-23T07:12:38.509Z,99983.78
2022-12-23T07:14:41.915Z,99982.03
2022-12-23T07:16:45.316Z,100004.78
2022-12-23T07:18:48.839Z,100006.25
2022-12-23T07:20:52.941Z,100032.09
2022-12-23T07:22:58.229Z,100040.72
2022-12-23T07:25:01.615Z,100045.00
2022-12-23T07:27:05.280Z,100034.72
2022-12-23T07:29:08.783Z,100038.94
2022-12-23T07:31:12.300Z,100046.72
2022-12-23T07:33:16.175Z,100040.81
2022-12-23T07:35:20.446Z,100038.13
2022-12-23T07:37:23.916Z,100036.50
2022-12-23T07:39:28.813Z,100021.44
2022-12-23T07:41:32.204Z,100040.09
2022-12-23T07:43:42.550Z,100050.47
2022-12-23T07:45:45.985Z,100051.31
2022-12-23T07:47:53.286Z,100046.16
2022-12-23T07:49:56.673Z,100047.72
2022-12-23T07:52:00.101Z,100053.69
2022-12-23T07:54:03.509Z,100054.56
2022-12-23T07:56:09.133Z,100061.44
2022-12-23T07:58:12.450Z,100061.56
2022-12-23T08:00:16.399Z,100060.78
2022-12-23T08:02:22.051Z,100064.34
2022-12-23T08:04:25.671Z,100056.19
2022-12-23T08:06:29.034Z,100049.88
2022-12-23T08:08:32.907Z,100041.25
2022-12-23T08:10:36.236Z,100053.53
2022-12-23T08:12:41.070Z,100040.56
2022-12-23T08:14:45.581Z,100038.78
2022-12-23T08:16:49.436Z,100026.53
2022-12-23T08:18:52.842Z,100037.00
2022-12-23T08:20:57.235Z,100025.72
2022-12-23T08:23:00.586Z,100029.91
2022-12-23T08:25:04.321Z,100036.84
2022-12-23T08:27:07.702Z,100032.81
2022-12-23T08:29:12.521Z,100019.97
2022-12-23T08:31:17.771Z,100021.66
2022-12-23T08:33:21.210Z,100024.31
2022-12-23T08:35:24.623Z,100023.47
2022-12-23T08:37:27.967Z,100021.50
2022-12-23T08:39:31.345Z,100017.28
2022-12-23T08:41:38.300Z,100007.88
2022-12-23T08:43:41.848Z,100015.72
2022-12-23T08:45:46.696Z,100014.81
2022-12-23T08:47:50.130Z,100014.03
2022-12-23T08:49:53.535Z,100022.00
2022-12-23T08:51:57.034Z,100008.19
2022-12-23T08:54:01.838Z,100033.47
2022-12-23T08:56:07.181Z,100022.09
2022-12-23T08:58:11.142Z,100014.16
2022-12-23T09:00:15.386Z,100028.91
2022-12-23T09:02:22.209Z,100023.53
2022-12-23T09:04:25.811Z,100023.31
2022-12-23T09:06:33.631Z,100027.78
2022-12-23T09:08:37.780Z,100030.09
2022-12-23T09:10:42.652Z,100015.75
2022-12-23T09:12:46.284Z,100047.13
2022-12-23T09:14:49.663Z,100030.53
2022-12-23T09:16:53.107Z,100029.03
2022-12-23T09:18:58.224Z,100028.22
2022-12-23T09:21:04.411Z,100040.19
2022-12-23T09:23:08.154Z,100025.53
2022-12-23T09:25:11.543Z,100031.81
2022-12-23T09:27:14.895Z,100023.94
2022-12-23T09:29:18.218Z,100019.56
2022-12-23T09:31:26.792Z,100010.56
2022-12-23T09:33:32.700Z,100019.56
2022-12-23T09:35:37.409Z,100015.34
2022-12-23T09:37:40.885Z,99997.91
2022-12-23T09:39:44.496Z,100000.59
2022-12-23T09:42:01.261Z,100001.44
2022-12-23T09:44:22.554Z,100003.06
2022-12-23T09:46:31.000Z,99995.88
2022-12-23T09:48:42.660Z,99988.25
2022-12-23T09:50:47.467Z,99985.72
2022-12-23T09:52:59.922Z,99993.72
2022-12-23T09:55:03.252Z,99984.91
2022-12-23T09:57:19.843Z,99985.78
2022-12-23T09:59:34.947Z,99976.22
2022-12-23T10:01:46.023Z,99977.00
2022-12-23T10:04:16.265Z,99973.31
2022-12-23T10:06:26.618Z,99964.69
2022-12-23T10:08:34.148Z,99958.47
2022-12-23T10:10:42.100Z,99955.09
2022-12-23T10:12:48.915Z,99953.25
2022-12-23T10:14:56.921Z,99955.03
2022-12-23T10:17:06.688Z,99949.88
2022-12-23T10:19:16.844Z,99934.09
2022-12-23T10:21:31.250Z,99946.13
2022-12-23T10:23:38.598Z,99915.72
2022-12-23T10:25:50.067Z,99943.13
2022-12-23T10:27:53.493Z,99920.69
2022-12-23T10:30:09.450Z,99917.34
2022-12-23T10:32:29.428Z,99908.78
2022-12-23T10:34:40.665Z,99907.94
2022-12-23T10:36:54.666Z,99897.56
2022-12-23T10:39:05.389Z,99904.53
2022-12-23T10:41:18.087Z,99894.13
2022-12-23T10:43:27.732Z,99885.41
2022-12-23T10:45:49.519Z,99884.47
2022-12-23T10:48:08.621Z,99890.53
2022-12-23T10:50:45.869Z,99883.56
2022-12-23T10:52:53.557Z,99865.31
2022-12-23T10:54:56.905Z,99873.13
2022-12-23T10:57:01.231Z,99871.41
2022-12-23T10:59:06.573Z,99881.13
2022-12-23T11:01:21.855Z,99876.56
2022-12-23T11:03:32.280Z,99869.88
2022-12-23T11:05:36.845Z,99875.84
2022-12-23T11:07:45.389Z,99868.69
2022-12-23T11:09:55.218Z,99872.78
2022-12-23T11:12:01.127Z,99865.56
2022-12-23T11:14:04.509Z,99868.06
2022-12-23T11:16:15.960Z,99866.13
2022-12-23T11:18:21.862Z,99859.09
2022-12-23T11:20:25.905Z,99855.53
2022-12-23T11:22:29.508Z,99850.38
2022-12-23T11:24:37.964Z,99839.03
2022-12-23T11:26:48.322Z,99819.78
2022-12-23T11:29:03.864Z,99837.41
2022-12-23T11:31:11.819Z,99832.25
2022-12-23T11:33:23.889Z,99821.81
2022-12-23T11:35:29.448Z,99818.28
2022-12-23T11:37:37.839Z,99816.56
2022-12-23T11:39:47.378Z,99794.84
2022-12-23T11:41:55.736Z,99801.81
2022-12-23T11:44:02.523Z,99800.97
2022-12-23T11:46:17.693Z,99797.38
2022-12-23T11:48:29.009Z,99790.34
2022-12-23T11:50:35.975Z,99779.94
2022-12-23T11:52:51.679Z,99761.53
2022-12-23T11:54:56.441Z,99767.81
2022-12-23T11:57:04.690Z,99742.66
2022-12-23T11:59:17.056Z,99739.19
2022-12-23T12:01:24.810Z,99734.88
2022-12-23T12:03:32.707Z,99726.28
2022-12-23T12:05:39.167Z,99712.22
2022-12-23T12:07:43.191Z,99720.94
2022-12-23T12:09:46.545Z,99711.28
2022-12-23T12:11:53.057Z,99716.25
2022-12-23T12:14:01.117Z,99717.19
2022-12-23T12:16:21.189Z,99701.56
2022-12-23T12:18:25.355Z,99693.75
2022-12-23T12:20:32.424Z,99690.25
2022-12-23T12:22:40.282Z,99682.53
2022-12-23T12:24:49.245Z,99681.75
2022-12-23T12:26:54.641Z,99674.72
2022-12-23T12:29:03.709Z,99669.47
2022-12-23T12:31:17.921Z,99681.75
2022-12-23T12:33:28.813Z,99608.19
2022-12-23T12:35:38.908Z,99674.56
2022-12-23T12:37:49.205Z,99670.28
2022-12-23T12:39:56.899Z,99666.75
2022-12-23T12:42:06.353Z,99658.81
2022-12-23T12:44:29.035Z,99657.00
2022-12-23T12:46:39.104Z,99649.19
2022-12-23T12:48:48.360Z,99638.72
2022-12-23T12:50:59.125Z,99630.84
2022-12-23T12:53:11.292Z,99620.53
2022-12-23T12:55:22.347Z,99603.19
2022-12-23T12:57:26.363Z,99596.09
2022-12-23T12:59:35.722Z,99594.38
2022-12-23T13:01:49.330Z,99597.03
2022-12-23T13:04:22.702Z,99588.28
2022-12-23T13:06:32.371Z,99549.06
2022-12-23T13:08:55.525Z,99515.13
2022-12-23T13:11:06.750Z,99553.53
2022-12-23T13:13:24.518Z,99583.09
2022-12-23T13:15:35.264Z,99599.53
2022-12-23T13:17:46.235Z,99609.91
2022-12-23T13:19:54.467Z,99623.75
2022-12-23T13:22:04.179Z,99634.13
2022-12-23T13:24:17.089Z,99615.84
2022-12-23T13:26:30.933Z,99555.09
2022-12-23T13:28:41.411Z,99501.25
2022-12-23T13:30:54.108Z,99522.19
2022-12-23T13:33:08.259Z,99516.91
2022-12-23T13:35:30.382Z,99519.53
2022-12-23T13:37:40.579Z,99517.66
2022-12-23T13:39:55.237Z,99506.31
2022-12-23T13:42:05.941Z,99480.31
2022-12-23T13:44:11.271Z,99469.94
2022-12-23T13:46:25.529Z,99463.00
2022-12-23T13:48:37.850Z,99459.50
2022-12-23T13:50:46.689Z,99456.06
2022-12-23T13:53:07.215Z,99476.06
2022-12-23T13:55:23.045Z,99466.50
2022-12-23T13:57:41.457Z,99450.91
2022-12-23T14:00:04.970Z,99450.94
2022-12-23T14:02:52.859Z,99454.38
2022-12-23T14:05:00.819Z,99450.06
2022-12-23T14:07:08.286Z,99441.38
2022-12-23T14:09:16.225Z,99438.00
2022-12-23T14:11:23.350Z,99432.84
2022-12-23T14:13:31.146Z,99426.81
2022-12-23T14:15:49.025Z,99432.06
2022-12-23T14:18:08.773Z,99429.47
2022-12-23T14:20:26.995Z,99422.56
2022-12-23T14:22:58.593Z,99426.91
2022-12-23T14:25:30.300Z,99429.50
2022-12-23T14:27:51.957Z,99407.72
2022-12-23T14:30:06.212Z,99420.81
2022-12-23T14:32:20.859Z,99424.28
2022-12-23T14:34:30.195Z,99417.34
2022-12-23T14:36:33.741Z,99422.56
2022-12-23T14:38:37.359Z,99411.25
2022-12-23T14:40:58.182Z,99419.13
2022-12-23T14:43:25.864Z,99414.91
2022-12-23T14:45:34.806Z,99393.16
2022-12-23T14:47:40.582Z,99382.78
2022-12-23T14:49:45.566Z,99421.94
2022-12-23T14:51:50.843Z,99402.88
2022-12-23T14:54:13.641Z,99411.63
2022-12-23T14:56:24.482Z,99409.94
2022-12-23T14:58:42.387Z,99414.28
2022-12-23T15:00:51.001Z,99413.44
2022-12-23T15:02:58.244Z,99415.13
2022-12-23T15:05:03.570Z,99412.56
2022-12-23T15:07:10.095Z,99410.03
2022-12-23T15:09:23.467Z,99421.31
2022-12-23T15:11:29.897Z,99392.63
2022-12-23T15:13:34.133Z,99408.38
2022-12-23T15:15:37.599Z,99401.44
2022-12-23T15:17:41.233Z,99411.09
2022-12-23T15:19:48.938Z,99411.88
2022-12-23T15:22:17.847Z,99413.63
2022-12-23T15:24:24.401Z,99403.16
2022-12-23T15:26:31.231Z,99416.28
2022-12-23T15:28:38.574Z,99410.22
2022-12-23T15:30:50.669Z,99423.25
2022-12-23T15:32:59.572Z,99397.09
2022-12-23T15:35:06.981Z,99418.06
2022-12-23T15:37:14.037Z,99403.19
2022-12-23T15:39:20.883Z,99427.59
2022-12-23T15:41:24.358Z,99426.81
2022-12-23T15:43:28.453Z,99416.34
2022-12-23T15:45:36.536Z,99391.94
2022-12-23T15:47:41.818Z,99433.88
2022-12-23T15:49:45.920Z,99432.13
2022-12-23T15:52:12.589Z,99427.81
2022-12-23T15:54:23.661Z,99430.47
2022-12-23T15:56:30.934Z,99439.22
2022-12-23T15:58:36.437Z,99435.75
2022-12-23T16:00:42.582Z,99445.31
2022-12-23T16:03:03.332Z,99440.97
2022-12-23T16:05:09.627Z,99448.84
2022-12-23T16:07:25.597Z,99431.38
2022-12-23T16:09:36.061Z,99449.72
2022-12-23T16:11:48.736Z,99443.66
2022-12-23T16:13:58.848Z,99452.38
2022-12-23T16:16:30.305Z,99454.13
2022-12-23T16:18:46.973Z,99448.88
2022-12-23T16:20:54.523Z,99455.88
2022-12-23T16:23:01.623Z,99449.78
2022-12-23T16:25:12.870Z,99455.88
2022-12-23T16:27:19.392Z,99458.50
2022-12-23T16:29:23.238Z,99475.09
2022-12-23T16:31:26.715Z,99477.78
2022-12-23T16:33:37.509Z,99411.66
2022-12-23T16:35:42.954Z,99411.72
2022-12-23T16:37:51.096Z,99482.44
2022-12-23T16:39:54.794Z,99474.63
2022-12-23T16:41:59.589Z,99489.44
2022-12-23T16:44:03.125Z,99496.41
2022-12-23T16:46:08.327Z,99496.41
2022-12-23T16:48:20.713Z,99499.06
2022-12-23T16:50:24.651Z,99505.16
2022-12-23T16:52:28.034Z,99504.28
2022-12-23T16:54:31.399Z,99518.22
2022-12-23T16:56:36.581Z,99525.22
2022-12-23T16:58:41.374Z,99516.50
2022-12-23T17:00:45.443Z,99529.59
2022-12-23T17:02:49.059Z,99514.75
2022-12-23T17:04:52.861Z,99539.16
2022-12-23T17:06:56.237Z,99546.13
2022-12-23T17:08:59.702Z,99565.28
2022-12-23T17:11:03.269Z,99553.97
2022-12-23T17:13:06.739Z,99561.78
2022-12-23T17:15:17.945Z,99578.31
2022-12-23T17:17:25.632Z,99571.34
2022-12-23T17:19:29.710Z,99573.91
2022-12-23T17:21:36.718Z,99582.63
2022-12-23T17:23:40.654Z,99593.06
2022-12-23T17:25:45.042Z,99535.50
2022-12-23T17:27:49.987Z,99600.00
2022-12-23T17:29:53.295Z,99605.25
2022-12-23T17:31:58.195Z,99613.97
2022-12-23T17:34:01.700Z,99606.13
2022-12-23T17:36:05.551Z,99608.75
2022-12-23T17:38:13.334Z,99606.13
2022-12-23T17:40:17.807Z,99603.50
2022-12-23T17:42:25.859Z,99605.22
2022-12-23T17:44:29.240Z,99615.69
2022-12-23T17:46:32.834Z,99618.31
2022-12-23T17:48:37.951Z,99631.38
2022-12-23T17:50:42.936Z,99631.34
2022-12-23T17:52:46.915Z,99604.28
2022-12-23T17:54:52.183Z,99631.38
2022-12-23T17:56:56.106Z,99628.78
2022-12-23T17:58:59.929Z,99601.69
2022-12-23T18:01:03.273Z,99630.50
2022-12-23T18:03:07.672Z,99626.13
2022-12-23T18:05:22.629Z,99640.97
2022-12-23T18:07:26.780Z,99628.75
2022-12-23T18:09:30.106Z,99640.03
2022-12-23T18:11:37.252Z,99632.19
2022-12-23T18:13:40.618Z,99633.94
2022-12-23T18:15:45.383Z,99647.03
2022-12-23T18:17:48.960Z,99645.28
2022-12-23T18:19:52.731Z,99654.03
2022-12-23T18:21:57.634Z,99648.78
2022-12-23T18:24:01.180Z,99654.00
2022-12-23T18:26:04.955Z,99647.03
2022-12-23T18:28:08.648Z,99660.94
2022-12-23T18:30:13.158Z,99654.84
2022-12-23T18:32:23.250Z,99650.47
2022-12-23T18:34:26.603Z,99663.56
2022-12-23T18:36:33.168Z,99645.19
2022-12-23T18:38:37.994Z,99668.75
2022-12-23T18:40:42.802Z,99670.47
2022-12-23T18:42:47.008Z,99677.44
2022-12-23T18:44:50.314Z,99679.19
2022-12-23T18:46:53.755Z,99683.50
2022-12-23T18:48:57.295Z,99683.53
2022-12-23T18:51:00.692Z,99691.34
2022-12-23T18:53:04.689Z,99686.09
2022-12-23T18:55:11.747Z,99699.19
2022-12-23T18:57:15.120Z,99691.34
2022-12-23T18:59:27.512Z,99709.63
2022-12-23T19:01:33.229Z,99703.53
2022-12-23T19:03:36.661Z,99700.94
2022-12-23T19:05:40.181Z,99703.56
2022-12-23T19:07:43.703Z,99705.34
2022-12-23T19:09:47.050Z,99715.78
2022-12-23T19:11:53.413Z,99698.31
2022-12-23T19:13:56.768Z,99714.00
2022-12-23T19:16:00.162Z,99710.50
2022-12-23T19:18:03.523Z,99714.03
2022-12-23T19:20:08.979Z,99707.91
2022-12-23T19:22:12.419Z,99709.66
2022-12-23T19:24:15.728Z,99708.78
2022-12-23T19:26:19.150Z,99706.16
2022-12-23T19:28:24.285Z,99716.59
2022-12-23T19:30:27.718Z,99716.63
2022-12-23T19:32:31.402Z,99720.97
2022-12-23T19:34:35.102Z,99716.59
2022-12-23T19:36:39.692Z,99721.81
2022-12-23T19:38:43.343Z,99716.56
2022-12-23T19:40:46.701Z,99718.31
2022-12-23T19:42:50.043Z,99713.91
2022-12-23T19:44:54.719Z,99723.53
2022-12-23T19:46:58.130Z,99739.19
2022-12-23T19:49:01.606Z,99748.75
2022-12-23T19:51:07.643Z,99763.56
2022-12-23T19:53:11.250Z,99752.25
2022-12-23T19:55:15.619Z,99779.22
2022-12-23T19:57:19.013Z,99761.75
2022-12-23T19:59:22.507Z,99772.22
2022-12-23T20:01:27.963Z,99767.88
2022-12-23T20:03:31.436Z,99775.72
2022-12-23T20:05:34.826Z,99779.22
2022-12-23T20:07:38.276Z,99776.59
2022-12-23T20:09:41.644Z,99774.84
2022-12-23T20:11:46.673Z,99789.66
2022-12-23T20:13:53.239Z,99791.38
2022-12-23T20:15:56.690Z,99797.50
2022-12-23T20:18:01.411Z,99794.94
2022-12-23T20:20:06.994Z,99794.91
2022-12-23T20:22:10.346Z,99799.25
2022-12-23T20:24:14.438Z,99794.91
2022-12-23T20:26:19.178Z,99793.19
2022-12-23T20:28:22.556Z,99809.72
2022-12-23T20:30:27.721Z,99799.25
2022-12-23T20:32:31.088Z,99827.16
2022-12-23T20:34:39.567Z,99813.19
2022-12-23T20:36:43.574Z,99827.19
2022-12-23T20:38:48.026Z,99824.56
2022-12-23T20:40:51.514Z,99818.44
2022-12-23T20:42:55.077Z,99825.41
2022-12-23T20:44:58.371Z,99833.22
2022-12-23T20:47:01.947Z,99835.84
2022-12-23T20:49:05.695Z,99848.06
2022-12-23T20:51:13.516Z,99848.09
2022-12-23T20:53:17.527Z,99861.97
2022-12-23T20:55:20.864Z,99868.97
2022-12-23T20:57:24.587Z,99852.38
2022-12-23T20:59:28.141Z,99857.66
2022-12-23T21:01:33.103Z,99864.59
2022-12-23T21:03:36.984Z,99856.78
2022-12-23T21:05:40.537Z,99866.38
2022-12-23T21:07:45.266Z,99865.50
2022-12-23T21:09:48.729Z,99866.31
2022-12-23T21:11:52.146Z,99887.22
2022-12-23T21:13:57.764Z,99878.50
2022-12-23T21:16:03.912Z,99887.16
2022-12-23T21:18:07.343Z,99884.50
2022-12-23T21:20:11.297Z,99895.84
2022-12-23T21:22:14.668Z,99874.81
2022-12-23T21:24:19.969Z,99890.59
2022-12-23T21:26:25.107Z,99889.66
2022-12-23T21:28:28.551Z,99886.13
2022-12-23T21:30:31.943Z,99895.78
2022-12-23T21:32:35.445Z,99878.25
2022-12-23T21:34:39.032Z,99893.06
2022-12-23T21:36:43.129Z,99905.34
2022-12-23T21:38:46.719Z,99898.38
2022-12-23T21:40:51.462Z,99892.22
2022-12-23T21:42:54.863Z,99907.88
2022-12-23T21:44:58.273Z,99927.91
2022-12-23T21:47:01.615Z,99913.88
2022-12-23T21:49:05.205Z,99934.81
2022-12-23T21:51:11.488Z,99934.78
2022-12-23T21:53:15.010Z,99944.34
2022-12-23T21:55:18.381Z,99919.97
2022-12-23T21:57:23.184Z,99937.31
2022-12-23T21:59:32.819Z,99938.09
2022-12-23T22:01:38.950Z,99950.34
2022-12-23T22:03:43.291Z,99948.56
2022-12-23T22:05:46.679Z,99947.72
2022-12-23T22:07:50.113Z,99955.47
2022-12-23T22:09:53.609Z,99952.03
2022-12-23T22:11:57.725Z,99953.75
2022-12-23T22:14:04.799Z,99950.16
2022-12-23T22:16:10.732Z,99962.38
2022-12-23T22:18:14.098Z,99958.88
2022-12-23T22:20:17.573Z,99961.47
2022-12-23T22:22:20.876Z,99977.16
2022-12-23T22:24:24.369Z,99978.94
2022-12-23T22:26:29.902Z,99964.84
2022-12-23T22:28:34.842Z,99994.56
2022-12-23T22:30:39.591Z,99985.84
2022-12-23T22:32:43.032Z,99989.34
2022-12-23T22:34:46.347Z,99996.31
2022-12-23T22:36:50.867Z,100000.63
2022-12-23T22:38:56.642Z,100010.25
2022-12-23T22:41:00.046Z,100012.88
2022-12-23T22:43:03.423Z,100014.59
2022-12-23T22:45:09.182Z,100024.13
2022-12-23T22:47:14.053Z,100036.31
2022-12-23T22:49:18.020Z,100034.59
2022-12-23T22:51:23.158Z,100051.13
2022-12-23T22:53:29.868Z,100036.31
2022-12-23T22:55:33.435Z,100033.75
2022-12-23T22:57:36.832Z,100037.16
2022-12-23T22:59:40.277Z,100049.41
2022-12-23T23:01:43.697Z,100042.47
2022-12-23T23:03:50.969Z,100050.28
2022-12-23T23:05:59.569Z,100061.53
2022-12-23T23:08:02.923Z,100066.78
2022-12-23T23:10:07.595Z,100045.03
2022-12-23T23:12:10.937Z,100066.78
2022-12-23T23:14:14.668Z,100056.31
2022-12-23T23:16:18.510Z,100071.94
2022-12-23T23:18:21.934Z,100065.81
2022-12-23T23:20:26.639Z,100065.81
2022-12-23T23:22:30.024Z,100078.03
2022-12-23T23:24:34.164Z,100079.81
2022-12-23T23:26:37.574Z,100080.69
2022-12-23T23:28:41.927Z,100091.03
2022-12-23T23:30:45.590Z,100073.63
2022-12-23T23:32:49.127Z,100090.09
2022-12-23T23:34:52.526Z,100089.19
2022-12-23T23:36:57.893Z,100086.56
2022-12-23T23:39:01.192Z,100091.88
2022-12-23T23:41:04.846Z,100097.06
2022-12-23T23:43:08.308Z,100104.22
2022-12-23T23:45:12.084Z,100087.88
2022-12-23T23:47:15.591Z,100099.34
2022-12-23T23:49:19.055Z,100100.63
2022-12-23T23:51:22.358Z,100111.09
2022-12-23T23:53:27.022Z,100111.88
2022-12-23T23:55:30.790Z,100126.59
2022-12-23T23:57:34.168Z,100138.75
2022-12-23T23:59:37.676Z,100129.13
